Pretty Lady — 9HVY9 — position and weather

sailwx.info

Track history (hours):
 
Tides and Currents Weather Stations Pressure Air Temp Water Temp Dewpoint Dewpoint Depression Visibility Wind Speed Wind Dir Waves Ship Positions

Pretty Lady

Last reported at 2016-Sep-08 20:33 UTC. Time now 2016-Sep-29 11:54 UTC.
Position N 32°19' W 009°15'.
Warning: this ship's position is 20 days out of date.

Length 189 m; draft 10.8 m.

Type: Cargo ship. MMSI: 249617000.

Date/timePositionNaut miles runAvg speedWind from/ knotsBaromVisibWave heightAir tempDewpointWater temp
2016-Sep-08 20:33N 32°19' W 009°15'0 0.0
2016-Sep-08 19:33N 32°19' W 009°15'0 0.0
2016-Sep-07 17:17N 32°19' W 009°15'0 0.0
2016-Sep-07 04:09N 32°19' W 009°15'2 2.5
2016-Sep-07 03:30N 32°19' W 009°17'3 2.9
2016-Sep-07 02:30N 32°19' W 009°20'2 0.2
2016-Sep-06 12:10N 32°17' W 009°21'0 0.0
2016-Sep-06 03:31N 32°17' W 009°21'0 0.0
2016-Sep-04 20:33N 32°17' W 009°21'0 0.0
2016-Sep-04 19:06N 32°17' W 009°21'0 0.0
2016-Sep-04 18:30N 32°17' W 009°21'32 1.7
2016-Sep-04 00:08N 32°48' W 009°16'1413.7
2016-Sep-03 23:08N 32°56' W 009°03'14813.9
2016-Sep-03 12:30N 34°50' W 007°10'2713.9
2016-Sep-03 10:33N 35°11' W 006°49'5713.9
2016-Sep-03 06:28N 35°53' W 006°02'2211.6
2016-Sep-03 04:34N 35°58' W 005°35'1212.5
2016-Sep-03 03:34N 36°02' W 005°21'1312.6
2016-Sep-03 02:33N 36°03' W 005°05'12213.1
2016-Sep-02 17:11N 36°15' W 002°34'2314.2
2016-Sep-02 15:33N 36°17' W 002°06'1613.8
2016-Sep-02 14:24N 36°20' W 001°46'16813.8
2016-Sep-02 02:13N 36°51' E 001°39'913.2
2016-Sep-02 01:33N 36°53' E 001°50'1413.6
2016-Sep-02 00:32N 36°55' E 002°07'1414.0
2016-Sep-01 23:30N 36°58' E 002°25'44813.4
2016-Aug-31 14:11N 37°14' E 011°46'813.1
2016-Aug-31 13:34N 37°10' E 011°55'1313.1
2016-Aug-31 12:33N 37°05' E 012°10'1313.3
2016-Aug-31 11:33N 36°60' E 012°25'1413.8
2016-Aug-31 10:33N 36°55' E 012°42'1413.9
2016-Aug-31 09:33N 36°51' E 012°58'1413.8
2016-Aug-31 08:33N 36°47' E 013°15'1413.6
2016-Aug-31 07:32N 36°42' E 013°31'2713.5
2016-Aug-31 05:33N 36°34' E 014°03'1414.0
2016-Aug-31 04:33N 36°30' E 014°19'1414.1
2016-Aug-31 03:34N 36°26' E 014°36'1414.1
2016-Aug-31 02:33N 36°22' E 014°53'1413.9
2016-Aug-31 01:33N 36°21' E 015°10'3413.8
2016-Aug-30 23:04N 36°21' E 015°53'713.8
2016-Aug-30 22:34N 36°21' E 016°01'2013.8
2016-Aug-30 21:07N 36°21' E 016°26'913.8
2016-Aug-30 20:29N 36°21' E 016°37'2613.6
2016-Aug-30 18:33N 36°21' E 017°10'  
Track history (hours):
 
Tides and Currents Weather Stations Pressure Air Temp Water Temp Dewpoint Dewpoint Depression Visibility Wind Speed Wind Dir Waves Ship Positions

Pretty Lady

Last reported at 2016-Sep-08 20:33 UTC. Time now 2016-Sep-29 11:54 UTC.
Position N 32°19' W 009°15'.
Warning: this ship's position is 20 days out of date.

Length 189 m; draft 10.8 m.

Type: Cargo ship. MMSI: 249617000.

Date/timePositionNaut miles runAvg speedWind from/ knotsBaromVisibWave heightAir tempDewpointWater temp
2016-Sep-08 20:33N 32°19' W 009°15'0 0.0
2016-Sep-08 19:33N 32°19' W 009°15'0 0.0
2016-Sep-07 17:17N 32°19' W 009°15'0 0.0
2016-Sep-07 04:09N 32°19' W 009°15'2 2.5
2016-Sep-07 03:30N 32°19' W 009°17'3 2.9
2016-Sep-07 02:30N 32°19' W 009°20'2 0.2
2016-Sep-06 12:10N 32°17' W 009°21'0 0.0
2016-Sep-06 03:31N 32°17' W 009°21'0 0.0
2016-Sep-04 20:33N 32°17' W 009°21'0 0.0
2016-Sep-04 19:06N 32°17' W 009°21'0 0.0
2016-Sep-04 18:30N 32°17' W 009°21'32 1.7
2016-Sep-04 00:08N 32°48' W 009°16'1413.7
2016-Sep-03 23:08N 32°56' W 009°03'14813.9
2016-Sep-03 12:30N 34°50' W 007°10'2713.9
2016-Sep-03 10:33N 35°11' W 006°49'5713.9
2016-Sep-03 06:28N 35°53' W 006°02'2211.6
2016-Sep-03 04:34N 35°58' W 005°35'1212.5
2016-Sep-03 03:34N 36°02' W 005°21'1312.6
2016-Sep-03 02:33N 36°03' W 005°05'12213.1
2016-Sep-02 17:11N 36°15' W 002°34'2314.2
2016-Sep-02 15:33N 36°17' W 002°06'1613.8
2016-Sep-02 14:24N 36°20' W 001°46'16813.8
2016-Sep-02 02:13N 36°51' E 001°39'913.2
2016-Sep-02 01:33N 36°53' E 001°50'1413.6
2016-Sep-02 00:32N 36°55' E 002°07'1414.0
2016-Sep-01 23:30N 36°58' E 002°25'44813.4
2016-Aug-31 14:11N 37°14' E 011°46'813.1
2016-Aug-31 13:34N 37°10' E 011°55'1313.1
2016-Aug-31 12:33N 37°05' E 012°10'1313.3
2016-Aug-31 11:33N 36°60' E 012°25'1413.8
2016-Aug-31 10:33N 36°55' E 012°42'1413.9
2016-Aug-31 09:33N 36°51' E 012°58'1413.8
2016-Aug-31 08:33N 36°47' E 013°15'1413.6
2016-Aug-31 07:32N 36°42' E 013°31'2713.5
2016-Aug-31 05:33N 36°34' E 014°03'1414.0
2016-Aug-31 04:33N 36°30' E 014°19'1414.1
2016-Aug-31 03:34N 36°26' E 014°36'1414.1
2016-Aug-31 02:33N 36°22' E 014°53'1413.9
2016-Aug-31 01:33N 36°21' E 015°10'3413.8
2016-Aug-30 23:04N 36°21' E 015°53'713.8
2016-Aug-30 22:34N 36°21' E 016°01'2013.8
2016-Aug-30 21:07N 36°21' E 016°26'913.8
2016-Aug-30 20:29N 36°21' E 016°37'2613.6
2016-Aug-30 18:33N 36°21' E 017°10'  

Dump ship's entire track history